Tiempo atmosférico en la estación meteorológica de Córdoba Aeropuerto, Córdoba (90 m.)



Fecha
DESCASC
Temp. máxima en grados centígrados (hora)
DESCASC
Temp. mínima en grados centígrados (hora)
DESCASC
Temp. media en grados centígrados
DESCASC
Racha de viento máxima en m/sg (hora)
DESCASC
Velocidad máxima media en intervalos de 10 minutos(hora)
DESCASC
Precipitaciones diarias en mm
DESCASC
Precipitaciones de 00:00 a 06:00 en mm
DESCASC
Precipitaciones de 06:00 a 12:00 en mm
DESCASC
Precipitaciones de 12:00 a 18:00 en mm
DESCASC
Precipitaciones de 18:00 a 24:00 en mm
DESCASC
14-08-2020 34.9 (17:40) 18.9 (07:40) 26.9 7.22 (14:50) 4.44 (16:20) -- -- 0 0 0
13-08-2020 34 (18:40) 18.1 (07:30) 26.1 -- (--) -- (--) -- 0 -- 0 0
12-08-2020 30.6 (18:00) 18.5 (05:10) 24.6 -- (--) -- (--) -- 0 0 -- 0
11-08-2020 -- (--) -- (--) -- -- (--) -- (--) 57.6 0 0 44.7 12.9
10-08-2020 36.6 (16:40) 23.6 (00:00) 30.1 8.33 (23:50) 5.83 (23:50) 0.9 0 0.9 0 0
09-08-2020 39.4 (16:30) 21.9 (00:00) 30.7 8.89 (17:30) 5.83 (19:40) 0 0 0 0 0
08-08-2020 40.6 (20:00) 24.3 (00:00) 32.4 18.06 (08:50) 8.33 (11:10) 0.1 0 0.1 0 0
07-08-2020 40.2 (17:30) 22.7 (00:00) 31.5 10.28 (17:30) 6.11 (17:30) 0 0 0 0 0
06-08-2020 41.7 (17:10) 22.1 (00:00) 31.9 11.39 (23:40) 7.78 (23:40) 0 0 0 0 0
05-08-2020 40.5 (18:50) 23.6 (00:00) 32.1 8.33 (20:20) 4.72 (22:20) 0 0 0 0 0
04-08-2020 37.4 (19:20) 20 (07:40) 28.7 7.78 (00:20) 5.28 (00:20) 0 0 0 0 0
03-08-2020 37.6 (18:10) 19.4 (07:20) 28.5 9.72 (21:40) 6.39 (21:40) 0 0 0 0 0
02-08-2020 40.8 (17:40) 20.9 (00:00) 30.8 11.67 (20:50) 7.78 (21:10) 0 0 0 0 0
01-08-2020 43.9 (18:20) 23.9 (00:00) 33.9 8.33 (19:00) 5.83 (19:20) 0 0 0 0 0
31-07-2020 40.4 (18:00) 23.4 (07:40) 31.9 8.89 (16:30) 5.83 (16:30) 0 0 0 0 0
30-07-2020 41.1 (16:00) 24.6 (00:00) 32.8 11.67 (16:10) 6.94 (16:10) 0 0 0 0 0
29-07-2020 -- (--) -- (--) -- -- (--) -- (--) -- 0 0 -- 0
28-07-2020 40.9 (17:30) 22.2 (00:00) 31.6 7.78 (18:00) 5 (19:40) 0 0 0 0 0
27-07-2020 39 (17:30) 23.1 (00:00) 31.1 10.28 (18:20) 6.94 (19:00) 0 0 0 0 0
26-07-2020 43.9 (18:20) 22.5 (00:00) 33.2 8.89 (18:30) 5.83 (20:30) 0 0 0 0 0
25-07-2020 42.2 (17:10) 21.7 (00:00) 32 9.17 (17:40) 5.28 (20:00) 0 0 0 0 0
24-07-2020 41.2 (17:00) 23.2 (00:00) 32.2 9.17 (00:20) 5.83 (00:20) 0 0 0 0 0
23-07-2020 40.3 (18:10) 22.5 (00:00) 31.4 8.89 (22:30) 5.56 (23:20) 0 0 0 0 0
22-07-2020 36.5 (17:40) 21.9 (00:00) 29.2 8.89 (01:20) 5.28 (01:00) 0 0 0 0 0
21-07-2020 -- (--) -- (--) -- -- (--) -- (--) -- 0 -- -- 0
20-07-2020 42.5 (18:30) 21.2 (00:00) 31.9 8.33 (23:30) -- (--) -- 0 0 -- 0
19-07-2020 39.4 (17:30) 22.8 (00:00) 31.1 8.89 (00:10) 6.11 (18:20) 0 0 0 0 0
18-07-2020 38.3 (17:40) 23.1 (00:00) 30.7 12.5 (20:00) 7.78 (19:20) 0 0 0 0 0
17-07-2020 41.2 (18:20) 21.5 (00:00) 31.4 9.17 (18:40) 5 (19:30) 0 0 0 0 0
16-07-2020 40.9 (18:20) 23 (00:00) 32 8.33 (20:50) 5.56 (21:00) 0 0 0 0 0

Gráficas

Temp. máximas Temp. mínimas Temp. medias Precipitaciones Rachas de viento máximas Velocidades máximas media en intervalos de 10 minutos

Datos horarios

Fecha y hora oficial Temperatura (ºC) Velocidad del viento (km/h) Dirección del viento Racha (km/h) Dirección de racha Precipitación (mm) Presión (hPa) Tendencia (hPa) Humedad (%)
2020-08-14 23:00:00 26.7 13 Oeste 21 Oeste 0 1002.6 -- 40
2020-08-14 22:00:00 27 8 Oeste 15 Oeste 0 1001.5 -- 44
2020-08-14 21:00:00 31.3 10 Oeste 21 Sudoeste 0 1000.8 -- 27
2020-08-14 20:00:00 33.8 14 Sudoeste 21 Oeste 0 1000.6 -- 21
2020-08-14 19:00:00 34.6 11 Oeste 24 Sudoeste 0 1000.5 -- 24
2020-08-14 18:00:00 34.4 13 Sudoeste 26 Sudoeste 0 1000.9 -- 23
2020-08-14 17:00:00 34.4 13 Sudoeste 24 Oeste 0 1001.4 -- 24
2020-08-14 16:00:00 33.2 15 Oeste 26 Oeste 0 1002.3 -- 29
2020-08-14 15:00:00 31.4 15 Oeste 26 Sudoeste 0 1002.9 -- 35
2020-08-14 14:00:00 29.6 12 Sudoeste 21 Oeste 0 1003.7 -- 43
2020-08-14 13:00:00 27.6 10 Oeste 18 Sudoeste 0 1004.4 -- 50
2020-08-14 12:00:00 25.8 8 Oeste 18 Oeste 0 1004.8 -- 58
2020-08-14 11:00:00 23.8 7 Oeste 17 Oeste 0 1004.8 -- 67
2020-08-14 10:00:00 22 7 Sudoeste -- -- -- 1004.7 -- 76
2020-08-14 09:00:00 20.3 6 Sudoeste 9 Sudoeste 0 1004.6 -- 83
2020-08-14 08:00:00 18.9 6 Sudoeste 9 Sudoeste 0 1004.3 -- 89
2020-08-14 07:00:00 19.2 5 Oeste 8 Oeste 0 1004.1 -- 86
2020-08-14 06:00:00 19.7 5 Sudoeste 11 Sudoeste 0 1004 -- 84
2020-08-14 05:00:00 20.7 9 Sudoeste -- -- -- 1004 -- 80
2020-08-14 04:00:00 21.1 9 Sudoeste 13 Sudoeste 0 1004 -- 82
2020-08-14 03:00:00 22 9 Sudoeste -- -- -- 1004.2 -- 77
2020-08-14 02:00:00 23 11 Oeste 18 Oeste 0 1004.4 -- 74
2020-08-14 01:00:00 23.9 10 Oeste 21 Oeste 0 1004.2 -- 71
2020-08-14 00:00:00 25 14 Sudoeste 24 Oeste 0 1004 -- 66
2020-08-13 23:00:00 25.1 15 Oeste 22 Oeste 0 1003.6 -- 58
2020-08-13 22:00:00 27.6 4 Oeste 8 Oeste 0 1002.6 -- 44
2020-08-13 21:00:00 31.1 6 Oeste 13 Oeste 0 1002.1 -- 27
2020-08-13 20:00:00 33.2 9 Sudoeste 18 Sudoeste 0 1001.6 -- 22
2020-08-13 19:00:00 33.8 13 Sudoeste 24 Sur 0 1001.9 -- 22
2020-08-13 18:00:00 33.7 11 Sudoeste 21 Oeste 0 1002.2 -- 22
2020-08-13 17:00:00 33.2 10 Sur 18 Sur 0 1002.8 -- 28
2020-08-13 16:00:00 32.4 9 Sur 17 Sur 0 1003.5 -- 29
2020-08-13 15:00:00 30.9 9 Sur 15 Sudoeste 0 1004.1 -- 37
2020-08-13 14:00:00 28.9 8 Sudoeste 15 Sudoeste 0 1004.8 -- 46
2020-08-13 13:00:00 27.5 5 Sudeste 15 Sur 0 1005.6 -- 52
2020-08-13 12:00:00 25.4 6 Sudeste -- -- -- 1005.9 -- 62
2020-08-13 11:00:00 23.8 5 Sudeste 11 Sudeste 0 1006 -- 68
2020-08-13 10:00:00 21.8 5 Sur 9 Sur 0 1005.8 -- 75
2020-08-13 09:00:00 20.3 0 Calma 5 Sudoeste 0 1005.5 -- 82
2020-08-13 08:00:00 18.3 0 Calma -- -- 0 1005.2 -- 90
2020-08-13 07:00:00 18.7 3 Sur -- -- -- 1004.8 -- 87
2020-08-13 06:00:00 18.7 6 Sudoeste -- -- 0 1004.7 -- 88
2020-08-13 05:00:00 19.4 9 Sur 9 Sudoeste 0 1004.7 -- 86
2020-08-13 04:00:00 19.8 7 Sudoeste 13 Oeste 0 1004.8 -- 84
2020-08-13 03:00:00 20.4 8 Sudoeste -- -- -- 1005.1 -- 81
2020-08-13 02:00:00 20.9 10 Oeste 13 Oeste 0 1005.2 -- 81
2020-08-13 01:00:00 21.9 11 Oeste 21 Oeste 0 1005.1 -- 76
2020-08-13 00:00:00 23 14 Oeste 24 Oeste 0 1005 -- 69
2020-08-12 23:00:00 23.7 13 Oeste 18 Oeste 0 1004.3 -- 66
2020-08-12 22:00:00 24.6 9 Oeste 13 Sudoeste 0 1003.2 -- 66
2020-08-12 21:00:00 28 9 Sudoeste 18 Sudoeste 0 1002.4 -- 44
2020-08-12 20:00:00 29.6 15 Sudoeste 32 Sudoeste 0 1002.2 -- 37
2020-08-12 19:00:00 30.1 17 Sudoeste 32 Oeste 0 1002.4 -- 37
2020-08-12 18:00:00 30.5 17 Oeste -- -- -- 1002.5 -- 35
2020-08-12 17:00:00 30 16 Oeste 30 Oeste 0 1003 -- 35
2020-08-12 16:00:00 29.6 17 Sudoeste -- -- -- 1003.6 -- 37
2020-08-12 15:00:00 28.5 13 Sudoeste 30 Oeste 0 1004.3 -- 45
2020-08-12 14:00:00 27.1 15 Sudoeste -- -- -- 1004.8 -- 54
2020-08-12 13:00:00 26.2 13 Sudoeste 28 Sudoeste 0 1005.3 -- 60
2020-08-12 12:00:00 23.9 15 Oeste 22 Sudoeste 0 1005.5 -- 70
2020-08-12 11:00:00 22.7 13 Sudoeste 21 Sudoeste 0 1005 -- 76
2020-08-12 10:00:00 21.3 13 Oeste 17 Sudoeste 0 1005.1 -- 82
2020-08-12 09:00:00 20.6 8 Oeste 13 Sudoeste 0 1004.5 -- 89
2020-08-12 08:00:00 19.4 6 Sudoeste 17 Sudoeste 0 1004.1 -- 93
2020-08-12 07:00:00 18.8 6 Sudoeste -- -- 0 1003.7 -- 94
2020-08-12 06:00:00 18.8 5 Sudoeste 9 Oeste 0 1003.6 -- 94
2020-08-12 05:00:00 18.6 5 Oeste 9 Sudoeste 0 1003.2 -- 93
2020-08-12 04:00:00 18.9 2 Sudoeste 8 Oeste 0 1003.1 -- 93
2020-08-12 03:00:00 19.4 5 Sudoeste 8 Sudoeste 0 1003.1 -- 91
2020-08-12 02:00:00 20.1 0 Calma 11 Sudeste 0 1003.1 -- 87
2020-08-12 01:00:00 20.9 9 Este 17 Nordeste 0 1003 -- 84
2020-08-12 00:00:00 21.4 14 Nordeste 26 Este 0 1003.2 -- 81
2020-08-11 23:00:00 21.8 10 Nordeste 22 Nordeste 0 1002.6 -- 82
2020-08-11 22:00:00 21.8 17 Nordeste 24 Nordeste 0 1001.7 -- 82
2020-08-11 21:00:00 21.2 6 Este 30 Norte 0 1000.1 -- 90
2020-08-11 20:00:00 21.1 10 Este -- -- -- 1000.2 -- 91
2020-08-11 19:00:00 19.4 13 Noroeste 50 Sudeste 12.9 999.5 -- 97
2020-08-11 18:00:00 18 22 Oeste 61 Oeste 44.6 1000.9 -- 96
2020-08-11 17:00:00 26.6 13 Oeste 33 Oeste 0.1 999.3 -- 62
2020-08-11 16:00:00 29.3 22 Oeste 59 Oeste 0 999.6 -- 42
2020-08-11 15:00:00 31.9 20 Oeste 30 Oeste 0 998.8 -- 39
2020-08-11 14:00:00 33.7 14 Oeste 33 Sudoeste 0 999.3 -- 34
2020-08-11 13:00:00 31.6 9 Oeste -- -- -- 999.9 -- 40
2020-08-11 12:00:00 29.9 9 Oeste -- -- -- 1000.2 -- 47
2020-08-11 11:00:00 28.2 6 Sudoeste 13 Sudoeste 0 1000.2 -- 52
2020-08-11 10:00:00 26.9 3 Oeste 11 Oeste 0 1000.3 -- 56
2020-08-11 09:00:00 24.9 0 Calma 9 Sur 0 1000.4 -- 61
2020-08-11 08:00:00 23.1 5 Sur -- -- -- 999.7 -- 69
2020-08-11 07:00:00 23.5 3 Este 5 Nordeste 0 999.2 -- 71
2020-08-11 06:00:00 23.5 3 Sudoeste 13 Sudoeste 0 999.4 -- 70
2020-08-11 05:00:00 23.7 5 Sur 9 Oeste 0 999.4 -- 69
2020-08-11 04:00:00 24.9 4 Sudeste 8 Sudeste 0 999.6 -- 68
2020-08-11 03:00:00 25.9 2 Oeste 8 Sur 0 999.9 -- 65
2020-08-11 02:00:00 27 5 Sudoeste 17 Sudoeste 0 1000.5 -- 60
2020-08-11 01:00:00 28.9 7 Sudoeste 26 Sudoeste 0 1000.5 -- 50
2020-08-11 00:00:00 30.5 21 Sudoeste 30 Sudoeste 0 1000.7 -- 50
2020-08-10 23:00:00 31 14 Sudoeste 21 Sudoeste 0 999.7 -- 46
2020-08-10 22:00:00 31.6 2 Sur 13 Oeste 0 998.1 -- 40
2020-08-10 21:00:00 33.4 10 Oeste 15 Oeste 0 997.6 -- 35
2020-08-10 20:00:00 34.5 9 Oeste 13 Oeste 0 997.1 -- 32
2020-08-10 19:00:00 34.9 9 Oeste 17 Oeste 0 997.5 -- 29
2020-08-10 18:00:00 35.3 12 Oeste 17 Oeste 0 997.9 -- 29
2020-08-10 17:00:00 36.2 8 Sudoeste 17 Sur 0 998.5 -- 25
2020-08-10 16:00:00 35.3 9 Norte 21 Norte 0 999 -- 28
2020-08-10 15:00:00 32.6 14 Nordeste 24 Norte 0 999.9 -- 37
2020-08-10 14:00:00 31.4 11 Este 21 Nordeste 0 1000.6 -- 40
2020-08-10 13:00:00 28.8 15 Este 22 Nordeste 0 1000.8 -- 54
2020-08-10 12:00:00 25.7 10 Oeste 18 Oeste 0 1001.9 -- 73
2020-08-10 11:00:00 24.4 10 Este 17 Oeste 0 1001.1 -- 79
2020-08-10 10:00:00 24.5 8 Oeste 11 Oeste 0.1 1001.7 -- 82
2020-08-10 09:00:00 23.7 9 Sur 21 Oeste 0.8 1001.2 -- 84
2020-08-10 08:00:00 24.5 11 Oeste 18 Oeste 0 1001.3 -- 70
2020-08-10 07:00:00 24.7 9 Sudoeste 17 Sudoeste 0 1000.4 -- 66
2020-08-10 06:00:00 25 12 Sudoeste 17 Sudoeste 0 1000.1 -- 63
2020-08-10 05:00:00 25.4 12 Oeste 15 Oeste 0 1000.2 -- 61
2020-08-10 04:00:00 26 9 Sudoeste 13 Oeste 0 1000.2 -- 61
2020-08-10 03:00:00 27 6 Sudoeste 13 Oeste 0 1000.5 -- 56
2020-08-10 02:00:00 28 10 Oeste 15 Oeste 0 1001 -- 53
2020-08-10 01:00:00 28.5 9 Oeste 15 Oeste 0 1001 -- 50
2020-08-10 00:00:00 30.6 13 Oeste 21 Sudoeste 0 1000.7 -- 39
2020-08-09 23:00:00 31.2 9 Sudoeste 13 Sudoeste 0 1000.5 -- 32
2020-08-09 22:00:00 32.9 9 Sudoeste 18 Sudoeste 0 999.9 -- 29
2020-08-09 21:00:00 35.5 13 Oeste 28 Oeste 0 999.6 -- 25
2020-08-09 20:00:00 37.2 18 Oeste 30 Oeste 0 999.5 -- 22
2020-08-09 19:00:00 38.4 20 Oeste 30 Oeste 0 999.9 -- 18
2020-08-09 18:00:00 39.2 20 Oeste 32 Oeste 0 1000.3 -- 15
2020-08-09 17:00:00 39.2 17 Oeste 30 Sudoeste 0 1000.9 -- 15
2020-08-09 16:00:00 38.5 15 Oeste 24 Sudoeste 0 1001.7 -- 15
2020-08-09 15:00:00 37.3 11 Oeste 18 Oeste 0 1002.5 -- 17
2020-08-09 14:00:00 35.9 6 Norte 13 Oeste 0 1003.3 -- 18
2020-08-09 13:00:00 34.4 3 Sudoeste 18 Este 0 1004.1 -- 20
2020-08-09 12:00:00 32.1 5 Este 17 Este 0 1004.5 -- 30
2020-08-09 11:00:00 29.7 9 Este 15 Este 0 1004.9 -- 37
2020-08-09 10:00:00 27.7 6 Este 13 Este 0 1005.3 -- 41
2020-08-09 09:00:00 24.9 4 Norte 11 Norte 0 1005.4 -- 52
2020-08-09 08:00:00 21.9 5 Sur -- -- 0 1005 -- 60
2020-08-09 07:00:00 22.7 8 Sudoeste 13 Sudoeste 0 1004.9 -- 59
2020-08-09 06:00:00 23.6 5 Oeste 17 Sudoeste 0 1005 -- 57
2020-08-09 05:00:00 25 13 Sur 17 Sudoeste 0 1004.7 -- 51
2020-08-09 04:00:00 26 12 Sur 18 Oeste 0 1004.7 -- 48
2020-08-09 03:00:00 27.3 13 Oeste 17 Oeste 0 1004.6 -- 44
2020-08-09 02:00:00 28.1 12 Oeste 18 Oeste 0 1004.6 -- 42
2020-08-09 01:00:00 28.5 9 Oeste 13 Oeste 0 1004.6 -- 41
2020-08-09 00:00:00 29.1 11 Oeste 13 Oeste 0 1004.3 -- 36
2020-08-08 23:00:00 30.5 9 Oeste 15 Oeste 0 1003.7 -- 32
2020-08-08 22:00:00 34.2 11 Oeste 21 Sudoeste 0 1003 -- 25
2020-08-08 21:00:00 37.5 12 Oeste 17 Oeste 0 1002.4 -- 18
2020-08-08 20:00:00 40.5 9 Sudoeste 21 Noroeste 0 1002.2 -- 14
2020-08-08 19:00:00 40.2 8 Oeste 22 Oeste 0 1002.6 -- 14
2020-08-08 18:00:00 40.2 12 Oeste 26 Oeste 0 1003.4 -- 14
2020-08-08 17:00:00 39.7 12 Oeste 22 Oeste 0 1004.1 -- 16
2020-08-08 16:00:00 38.4 10 Oeste 21 Oeste 0 1004.8 -- 18
2020-08-08 15:00:00 36.6 9 Sudoeste 18 Sudoeste 0 1005.6 -- 22
2020-08-08 14:00:00 34.4 4 Sur 17 Sudoeste 0 1006.3 -- 28
2020-08-08 13:00:00 32.6 7 Oeste 17 Norte 0 1006.7 -- 33
2020-08-08 12:00:00 28.5 6 Sur 46 Nordeste 0 1007.6 -- 50
2020-08-08 11:00:00 25.4 28 Nordeste 46 Nordeste 0 1005.8 -- 58
2020-08-08 10:00:00 24.9 14 Este 22 Sudoeste 0 1008.2 -- 66
2020-08-08 09:00:00 24.9 23 Sudoeste 65 Sur 0.1 1009 -- 62
2020-08-08 08:00:00 24.8 9 Norte 18 Este 0 1007.9 -- 69
2020-08-08 07:00:00 24.7 10 Sudoeste 13 Oeste 0 1007.2 -- 61
2020-08-08 06:00:00 25 6 Sudoeste 9 Oeste 0 1006.9 -- 64
2020-08-08 05:00:00 25.2 4 Sudoeste 5 Oeste 0 1006.7 -- 66
2020-08-08 04:00:00 25.3 5 Este 9 Sudoeste 0 1006.6 -- 63
2020-08-08 03:00:00 26.6 0 Calma 5 Norte 0 1007 -- 55
2020-08-08 02:00:00 27.4 3 Oeste 17 Oeste 0 1007.2 -- 54
2020-08-08 01:00:00 27.9 10 Oeste 17 Oeste 0 1006.9 -- 51
2020-08-08 00:00:00 29.2 11 Oeste 15 Oeste 0 1006 -- 43
2020-08-07 23:00:00 30.2 11 Oeste 21 Sudoeste 0 1005.3 -- 38
2020-08-07 22:00:00 32.3 13 Oeste 18 Oeste 0 1004.2 -- 30
2020-08-07 21:00:00 35.2 11 Sudoeste 24 Oeste 0 1003.4 -- 25
2020-08-07 20:00:00 37.3 17 Oeste 28 Oeste 0 1003.1 -- 20
2020-08-07 19:00:00 38.4 18 Oeste 30 Oeste 0 1003.1 -- 19
2020-08-07 18:00:00 39 19 Oeste 37 Sudoeste 0 1003.2 -- 16
2020-08-07 17:00:00 39.3 14 Oeste 26 Sur 0 1003.6 -- 15
2020-08-07 16:00:00 38.9 18 Sudoeste 32 Sudoeste 0 1004.4 -- 17
2020-08-07 15:00:00 37 12 Oeste 28 Sudoeste 0 1004.9 -- 23
2020-08-07 14:00:00 35.7 12 Oeste 24 Sudoeste 0 1005.2 -- 27
2020-08-07 13:00:00 34.5 10 Oeste 21 Oeste 0 1005.5 -- 30
2020-08-07 12:00:00 32.6 9 Oeste 17 Oeste 0 1005.7 -- 34
2020-08-07 11:00:00 31.1 7 Oeste 11 Oeste 0 1005.9 -- 34
2020-08-07 10:00:00 29.8 3 Sudeste 9 Sudeste 0 1005.8 -- 38
2020-08-07 09:00:00 26.7 5 Este 8 Este 0 1005.5 -- 44
2020-08-07 08:00:00 23 2 Norte 4 Norte 0 1005.1 -- 60
2020-08-07 07:00:00 23.4 0 Calma 5 Sur 0 1004.6 -- 55
2020-08-07 06:00:00 24.2 3 Nordeste 9 Nordeste 0 1004 -- 50
2020-08-07 05:00:00 24.8 3 Norte 8 Nordeste 0 1004.3 -- 48
2020-08-07 04:00:00 25.9 5 Este 9 Oeste 0 1004.2 -- 41
2020-08-07 03:00:00 26.7 5 Oeste 17 Oeste 0 1004.1 -- 37
2020-08-07 02:00:00 28.5 13 Sudoeste 18 Oeste 0 1004.3 -- 27
2020-08-07 01:00:00 29.9 13 Sudoeste 28 Sudoeste 0 1003.9 -- 23
2020-08-07 00:00:00 31.4 16 Sudoeste 41 Sur 0 1003.3 -- 21
2020-08-06 23:00:00 31.7 23 Oeste 33 Oeste 0 1003.1 -- 21
2020-08-06 22:00:00 34.2 13 Oeste 24 Oeste 0 1001.1 -- 17
2020-08-06 21:00:00 37 14 Sur 24 Sur 0 999.9 -- 17
2020-08-06 20:00:00 39.8 18 Sur 26 Sur 0 999.2 -- 14
2020-08-06 19:00:00 40.6 13 Sur 28 Sudoeste 0 999.1 -- 14
2020-08-06 18:00:00 41.5 16 Sur 30 Sur 0 999.3 -- 15
2020-08-06 17:00:00 41.5 15 Sur 37 Sur 0 999.5 -- 15
2020-08-06 16:00:00 40.9 16 Sur 28 Sur 0 1000 -- 17
2020-08-06 15:00:00 39.4 6 Este 21 Este 0 1000.6 -- 18
2020-08-06 14:00:00 37.4 10 Nordeste 21 Este 0 1001.2 -- 20
2020-08-06 13:00:00 35.9 9 Este 18 Este 0 1001.6 -- 22
2020-08-06 12:00:00 33.6 8 Este 13 Nordeste 0 1002.1 -- 25
2020-08-06 11:00:00 31.3 9 Este 15 Este 0 1002.4 -- 28
2020-08-06 10:00:00 29.1 9 Este 13 Este 0 1002.4 -- 32
2020-08-06 09:00:00 26.2 3 Este 8 Este 0 1002.1 -- 37
2020-08-06 08:00:00 22.4 3 Sudeste 8 Nordeste 0 1001.7 -- 53
2020-08-06 07:00:00 23.1 5 Norte 8 Norte 0 1001.4 -- 51
2020-08-06 06:00:00 23.4 0 Calma 8 Sur 0 1001 -- 54
2020-08-06 05:00:00 24.7 2 Noroeste 9 Oeste 0 1000.8 -- 49
2020-08-06 04:00:00 25.1 6 Oeste 11 Oeste 0 1000.9 -- 46
2020-08-06 03:00:00 26.1 5 Oeste 13 Sudoeste 0 1000.9 -- 41
2020-08-06 02:00:00 27.4 10 Oeste 17 Oeste 0 1000.6 -- 35
2020-08-06 01:00:00 28.9 9 Oeste 21 Sudoeste 0 1000 -- 31
2020-08-06 00:00:00 31.2 8 Noroeste 17 Sudoeste 0 999.5 -- 24
2020-08-05 23:00:00 31.7 7 Noroeste 28 Sur 0 999.1 -- 24
2020-08-05 22:00:00 34.2 12 Sur 22 Sur 0 998.2 -- 21
2020-08-05 21:00:00 37.3 14 Sudoeste 30 Oeste 0 997.6 -- 18
2020-08-05 20:00:00 39.2 12 Oeste 21 Oeste 0 997.2 -- 17
2020-08-05 19:00:00 40.2 10 Oeste 21 Noroeste 0 997.3 -- 14
2020-08-05 18:00:00 39.9 10 Sudoeste 22 Sudoeste 0 997.6 -- 16
2020-08-05 17:00:00 39.8 13 Sur 22 Sur 0 998 -- 18
2020-08-05 16:00:00 38.6 6 Sudoeste 21 Oeste 0 998.6 -- 22
2020-08-05 15:00:00 37.8 9 Sudoeste 26 Oeste 0 999.2 -- 25
2020-08-05 14:00:00 36.7 7 Sur 21 Sur 0 1000 -- 29
2020-08-05 13:00:00 34.2 6 Oeste 15 Oeste 0 1000.7 -- 35
2020-08-05 12:00:00 32.4 6 Oeste 13 Oeste 0 1001.2 -- 40
2020-08-05 11:00:00 31 5 Sur 13 Sur 0 1001.5 -- 43
2020-08-05 10:00:00 29.2 4 Sur 9 Sur 0 1001.5 -- 48
2020-08-05 09:00:00 26.2 3 Sur 8 Sur 0 1001.3 -- 57
2020-08-05 08:00:00 23.7 3 Sudoeste 8 Sur 0 1001.2 -- 67
2020-08-05 07:00:00 24 2 Sur 8 Oeste 0 1001 -- 65
2020-08-05 06:00:00 24.2 5 Oeste 11 Oeste 0 1000.7 -- 65
2020-08-05 05:00:00 24.6 9 Oeste 11 Oeste 0 1000.7 -- 65
2020-08-05 04:00:00 25.4 8 Oeste 11 Oeste 0 1000.3 -- 61
2020-08-05 03:00:00 26.2 10 Oeste 13 Oeste 0 1000.4 -- 56
2020-08-05 02:00:00 27.4 9 Sudoeste 17 Sudoeste 0 1000.4 -- 53
2020-08-05 01:00:00 28.5 8 Oeste 15 Oeste 0 1000.2 -- 43
2020-08-05 00:00:00 29.2 11 Oeste 18 Oeste 0 1000 -- 40
2020-08-04 23:00:00 31.5 11 Sudoeste 21 Sur 0 999.6 -- 34
2020-08-04 22:00:00 31 8 Oeste 13 Oeste 0 998.9 -- 37
2020-08-04 21:00:00 34.8 11 Oeste 21 Oeste 0 998.5 -- 28
2020-08-04 20:00:00 36.9 12 Oeste 21 Oeste 0 998.5 -- 23
2020-08-04 19:00:00 37.2 15 Oeste 24 Oeste 0 998.6 -- 22
2020-08-04 18:00:00 37.1 15 Sudoeste 28 Oeste 0 999.1 -- 25
2020-08-04 17:00:00 36.6 13 Oeste 28 Oeste 0 999.6 -- 27
2020-08-04 16:00:00 35.6 17 Oeste 28 Noroeste 0 1000.3 -- 29
2020-08-04 15:00:00 34.3 12 Oeste 24 Oeste 0 1000.9 -- 31
2020-08-04 14:00:00 32.8 12 Oeste 24 Oeste 0 1001.8 -- 32
2020-08-04 13:00:00 31.6 7 Oeste 17 Oeste 0 1002.3 -- 33
2020-08-04 12:00:00 29.5 8 Oeste 13 Oeste 0 1002.6 -- 37
2020-08-04 11:00:00 28 5 Oeste 11 Sudoeste 0 1002.5 -- 42
2020-08-04 10:00:00 26.4 5 Sur 11 Sudeste 0 1002.5 -- 44
2020-08-04 09:00:00 24.5 4 Sudeste 8 Sudeste 0 1002.1 -- 50
2020-08-04 08:00:00 20.3 4 Oeste 8 Sur 0 1001.8 -- 65
2020-08-04 07:00:00 21.1 4 Sur 5 Sur 0 1001.4 -- 63
2020-08-04 06:00:00 21.7 0 Calma 9 Sudoeste 0 1001.2 -- 63
2020-08-04 05:00:00 22.3 7 Sudoeste 9 Sudoeste 0 1001.1 -- 59
2020-08-04 04:00:00 23.1 4 Oeste 11 Oeste 0 1001 -- 56
2020-08-04 03:00:00 24.3 9 Sudoeste 17 Oeste 0 1001.1 -- 48
2020-08-04 02:00:00 25.4 12 Oeste 21 Oeste 0 1001.5 -- 44
2020-08-04 01:00:00 26.8 14 Oeste 28 Oeste 0 1001.4 -- 39
2020-08-04 00:00:00 28.1 17 Oeste 30 Oeste 0 1001.3 -- 33
2020-08-03 23:00:00 30 17 Oeste 30 Sudoeste 0 1000.8 -- 28
2020-08-03 22:00:00 32.2 19 Oeste 35 Sudoeste 0 999.5 -- 24
2020-08-03 21:00:00 34.8 15 Sudoeste 26 Sudoeste 0 998.7 -- 19
2020-08-03 20:00:00 36.3 18 Sudoeste 32 Sudoeste 0 998.7 -- 18
2020-08-03 19:00:00 37.1 16 Sudoeste 28 Sudoeste 0 998.8 -- 17
2020-08-03 18:00:00 37.1 15 Oeste 28 Sudoeste 0 999.1 -- 17
2020-08-03 17:00:00 37.3 15 Sudoeste 30 Sudoeste 0 999.6 -- 18
2020-08-03 16:00:00 36.4 14 Oeste 24 Sudoeste 0 1000.5 -- 19
2020-08-03 15:00:00 35.7 9 Sur 24 Sudoeste 0 1001.2 -- 21
2020-08-03 14:00:00 34.3 7 Sudeste 18 Sudoeste 0 1002 -- 23
2020-08-03 13:00:00 32.2 9 Sur 15 Sur 0 1002.6 -- 27
2020-08-03 12:00:00 29.7 8 Sudoeste 17 Sudoeste 0 1003.1 -- 32
2020-08-03 11:00:00 26.6 10 Oeste 17 Oeste 0 1003.6 -- 41
2020-08-03 10:00:00 24.4 9 Oeste 15 Oeste 0 1003.9 -- 52
2020-08-03 09:00:00 21.8 5 Oeste 8 Oeste 0 1003.4 -- 62
2020-08-03 08:00:00 19.8 4 Oeste 11 Sudoeste 0 1003.3 -- 70
2020-08-03 07:00:00 20.1 6 Sur 11 Sudoeste 0 1003.1 -- 66
2020-08-03 06:00:00 20.2 4 Sudoeste 11 Oeste 0 1003.1 -- 67
2020-08-03 05:00:00 21.2 5 Sudoeste 8 Oeste 0 1003.2 -- 65
2020-08-03 04:00:00 22 5 Oeste 11 Oeste 0 1003.1 -- 60
2020-08-03 03:00:00 22.7 6 Oeste 13 Oeste 0 1003.3 -- 55
2020-08-03 02:00:00 23.4 6 Oeste 13 Oeste 0 1003.6 -- 52
2020-08-03 01:00:00 25.3 11 Oeste 26 Oeste 0 1003.6 -- 44
2020-08-03 00:00:00 27.3 19 Sudoeste 35 Oeste 0 1003.4 -- 38
2020-08-02 23:00:00 29.8 22 Oeste 33 Oeste 0 1002.7 -- 31
2020-08-02 22:00:00 32.4 20 Sudoeste 39 Oeste 0 1001.5 -- 22
2020-08-02 21:00:00 35.8 26 Oeste 42 Oeste 0 1001 -- 14
2020-08-02 20:00:00 38.7 19 Oeste 32 Oeste 0 1000.2 -- 13
2020-08-02 19:00:00 39.4 21 Oeste 32 Oeste 0 1000.6 -- 11
2020-08-02 18:00:00 40.5 18 Oeste 33 Sudoeste 0 1001 -- 10
2020-08-02 17:00:00 40.1 19 Oeste 30 Oeste 0 1001.5 -- 12
2020-08-02 16:00:00 39.5 20 Oeste 28 Oeste 0 1002.2 -- 12
2020-08-02 15:00:00 38.4 13 Oeste 30 Oeste 0 1003.2 -- 10
2020-08-02 14:00:00 37.1 16 Sudoeste 24 Oeste 0 1003.9 -- 14
2020-08-02 13:00:00 35.6 8 Oeste 15 Sudoeste 0 1004.6 -- 20
2020-08-02 12:00:00 33 6 Sudoeste 13 Oeste 0 1005.3 -- 25
2020-08-02 11:00:00 30.7 4 Oeste 9 Oeste 0 1005.4 -- 30
2020-08-02 10:00:00 28.1 2 Oeste 8 Sur 0 1005.6 -- 33
2020-08-02 09:00:00 23.7 6 Sudoeste 8 Sur 0 1005.3 -- 44
2020-08-02 08:00:00 21.1 0 Calma 8 Oeste 0 1005.2 -- 60
2020-08-02 07:00:00 21.5 4 Sudoeste -- -- 0 1004.9 -- 56
2020-08-02 06:00:00 22 0 Calma 4 Oeste 0 1004.6 -- 61
2020-08-02 05:00:00 22.5 0 Calma -- -- 0 1004.5 -- 58
2020-08-02 04:00:00 24.3 6 Sudoeste 9 Sudoeste 0 1004.4 -- 46
2020-08-02 03:00:00 25.6 9 Sudoeste 15 Oeste 0 1004.4 -- 39
2020-08-02 02:00:00 26.5 13 Oeste 17 Oeste 0 1004.7 -- 36
2020-08-02 01:00:00 29 13 Oeste 21 Oeste 0 1004.6 -- 29
2020-08-02 00:00:00 29.8 9 Oeste 17 Sudoeste 0 1004 -- 33
2020-08-01 23:00:00 31.4 11 Oeste 22 Sudoeste 0 1003.7 -- 16
2020-08-01 22:00:00 32.7 9 Oeste 13 Oeste 0 1002.8 -- 16
2020-08-01 21:00:00 38.4 10 Noroeste 22 Noroeste 0 1002.5 -- 8
2020-08-01 20:00:00 41.7 14 Noroeste 30 Noroeste 0 1002.1 -- 5
2020-08-01 19:00:00 43.2 18 Oeste 30 Noroeste 0 1002.2 -- 5
2020-08-01 18:00:00 43 19 Oeste 28 Oeste 0 -- -- 7
2020-08-01 17:00:00 42.6 10 Sudoeste 22 Oeste 0 1002.9 -- 10
2020-08-01 16:00:00 41.1 10 Sur 18 Sur 0 1003.6 -- 16
2020-08-01 15:00:00 39.8 5 Sudoeste 18 Sur 0 1004.5 -- 18
2020-08-01 14:00:00 38.3 4 Sudeste 15 Sudoeste 0 1005.2 -- 21
2020-08-01 13:00:00 36.4 6 Este 15 Este 0 1005.9 -- 22
2020-08-01 12:00:00 33.5 5 Este 13 Este 0 1006.4 -- 35
2020-08-01 11:00:00 30.9 4 Sudeste 11 Este 0 1006.7 -- 49
2020-08-01 10:00:00 28.4 4 Sur 11 Sur 0 1006.9 -- 58
2020-08-01 09:00:00 26.1 2 Sudoeste -- -- 0 1006.6 -- 63
2020-08-01 08:00:00 24.3 6 Sudoeste 13 Sur 0 1006.4 -- 67
2020-08-01 07:00:00 24 8 Oeste 11 Oeste 0 1005.8 -- 70
2020-08-01 06:00:00 25.3 9 Sudoeste 11 Sudoeste 0 1005.6 -- 64
2020-08-01 05:00:00 26.6 10 Sur 13 Sudoeste 0 1005.2 -- 57
2020-08-01 04:00:00 27.5 9 Oeste 15 Oeste 0 1004.9 -- 54
2020-08-01 03:00:00 28 12 Oeste 17 Oeste 0 1005.2 -- 52
2020-08-01 02:00:00 27.7 11 Oeste 13 Oeste 0 1004.8 -- 51
2020-08-01 01:00:00 30.1 11 Sudoeste 15 Sudoeste 0 1004.5 -- 43
2020-08-01 00:00:00 29.8 6 Sudoeste 11 Sudoeste 0 1004.3 -- 40
2020-07-31 23:00:00 31.3 10 Sudoeste 15 Oeste 0 1003.7 -- 30
2020-07-31 22:00:00 33.2 12 Oeste 21 Oeste 0 1003.2 -- 27
2020-07-31 21:00:00 36 14 Oeste 24 Oeste 0 1002.4 -- 22
2020-07-31 20:00:00 38 16 Oeste 24 Oeste 0 1002.1 -- 22
2020-07-31 19:00:00 39.5 16 Oeste 28 Oeste 0 1002.1 -- 17
2020-07-31 18:00:00 40.3 15 Oeste 32 Oeste 0 1002.2 -- 16
2020-07-31 17:00:00 40 18 Oeste 32 Oeste 0 1002.7 -- 17
2020-07-31 16:00:00 39.5 16 Oeste 26 Oeste 0 1003.1 -- 18
2020-07-31 15:00:00 38.6 11 Oeste 24 Oeste 0 1003.4 -- 23
2020-07-31 14:00:00 36.9 7 Noroeste 18 Oeste 0 1003.8 -- 31
2020-07-31 13:00:00 35.3 8 Sur 21 Sur 0 1004.3 -- 35
2020-07-31 12:00:00 33.1 3 Este 13 Este 0 1004.6 -- 43
2020-07-31 11:00:00 30.3 6 Este 13 Sudeste 0 1004.8 -- 54
2020-07-31 10:00:00 28.5 4 Este 8 Sudeste 0 1004.7 -- 62
2020-07-31 09:00:00 26 4 Oeste 8 Oeste 0 1004.6 -- 72
2020-07-31 08:00:00 23.7 0 Calma 11 Sudoeste 0 1004.2 -- 80
2020-07-31 07:00:00 24 7 Sudoeste 15 Sudoeste 0 1003.8 -- 79
2020-07-31 06:00:00 24.8 11 Oeste 17 Oeste 0 1003.6 -- 75
2020-07-31 05:00:00 25.5 9 Oeste 15 Sudoeste 0 1003.2 -- 73
2020-07-31 04:00:00 26.6 9 Sudoeste 17 Oeste 0 1003 -- 69
2020-07-31 03:00:00 27.3 10 Oeste 15 Sudoeste 0 1003.1 -- 65
2020-07-31 02:00:00 28.9 12 Sudoeste 17 Oeste 0 1003.3 -- 57
2020-07-31 01:00:00 29.9 12 Oeste 17 Oeste 0 1003.1 -- 52
2020-07-31 00:00:00 31.3 12 Oeste 22 Oeste 0 1002.7 -- 45
2020-07-30 23:00:00 33.2 14 Oeste 24 Sudoeste 0 1001.8 -- 37
2020-07-30 22:00:00 34.5 12 Sudoeste 24 Oeste 0 1000.5 -- 30
2020-07-30 21:00:00 36.4 17 Oeste 33 Oeste 0 999.6 -- 30
2020-07-30 20:00:00 37.9 17 Oeste 37 Oeste 0 999.1 -- 28
2020-07-30 19:00:00 39.1 21 Oeste 35 Oeste 0 999 -- 25
2020-07-30 18:00:00 39.5 24 Oeste 35 Oeste 0 999.2 -- 24
2020-07-30 17:00:00 40.6 18 Sudoeste 42 Sudoeste 0 999.6 -- 21
2020-07-30 16:00:00 40.9 22 Sudoeste 39 Sudoeste 0 999.8 -- 19
2020-07-30 15:00:00 39.1 19 Sudoeste 32 Sudoeste 0 1000.6 -- 25
2020-07-30 14:00:00 36.4 7 Noroeste 24 Oeste 0 1001.3 -- 31
2020-07-30 13:00:00 34.9 9 Sudoeste 18 Sudoeste 0 1002 -- 33
2020-07-30 12:00:00 32.6 8 Oeste 18 Oeste 0 1002.5 -- 39
2020-07-30 11:00:00 30.9 6 Oeste 13 Oeste 0 1002.4 -- 41
2020-07-30 10:00:00 29.6 4 Oeste 9 Oeste 0 1002.4 -- 44
2020-07-30 09:00:00 26.6 5 Oeste 8 Oeste 0 1002 -- 55
2020-07-30 08:00:00 24.8 3 Sudoeste 9 Sur 0 1001.5 -- 60
2020-07-30 07:00:00 24.8 3 Este 11 Nordeste 0 1001.3 -- 61
2020-07-30 06:00:00 25.4 5 Sudoeste 15 Sur 0 1001 -- 57
2020-07-30 05:00:00 26.5 8 Sudoeste 18 Sudoeste 0 1001.1 -- 56
2020-07-30 04:00:00 27.5 5 Oeste 18 Sudoeste 0 1001.1 -- 53
2020-07-30 03:00:00 28.6 2 Oeste 26 Sudoeste 0 1001.7 -- 48
2020-07-30 02:00:00 30.2 20 Sudoeste 28 Sudoeste 0 1001 -- 41
2020-07-30 01:00:00 30 12 Sudoeste 21 Sudoeste 0 1000.6 -- 43
2020-07-30 00:00:00 31 10 Oeste 21 Oeste 0 1000.5 -- 38
2020-07-29 23:00:00 33.1 13 Sudoeste 21 Sudoeste 0 999.9 -- 32
2020-07-29 22:00:00 34.3 11 Sudoeste 26 Sudoeste 0 998.9 -- 30
2020-07-29 21:00:00 37 16 Sudoeste 24 Oeste 0 998.1 -- 25
2020-07-29 20:00:00 39.1 14 Oeste 24 Oeste 0 997.7 -- 22
2020-07-29 19:00:00 40.2 14 Oeste 26 Oeste 0 997.9 -- 19
2020-07-29 18:00:00 40.8 16 Oeste 26 Oeste 0 998.5 -- 19
2020-07-29 17:00:00 40.3 14 Oeste 26 Oeste 0 999.1 -- 20
2020-07-29 16:00:00 39 11 Oeste 24 Oeste 0 999.9 -- 21
2020-07-29 15:00:00 37 10 Oeste 22 Oeste 0 1000.8 -- 26
2020-07-29 14:00:00 35.7 7 Oeste -- -- -- 1001.5 -- 28
2020-07-29 13:00:00 -- -- -- -- -- -- -- -- --
2020-07-29 12:00:00 31.3 0 Calma -- -- -- -- -- 37
2020-07-29 11:00:00 30.1 6 Sur 11 Sur 0 1002.7 -- 42
2020-07-29 10:00:00 -- -- -- 9 Oeste 0 -- -- --
2020-07-29 09:00:00 24.5 4 Sur 8 Oeste 0 1002.4 -- 58
2020-07-29 08:00:00 21.8 5 Sudoeste 8 Sudoeste 0 1002 -- 71
2020-07-29 07:00:00 22.3 3 Norte 8 Sur 0 1001.5 -- 70
2020-07-29 06:00:00 22.7 6 Sur 9 Oeste 0 1001.1 -- 67
2020-07-29 05:00:00 23.4 9 Oeste 11 Oeste 0 1001.3 -- 69
2020-07-29 04:00:00 24.3 9 Oeste 15 Oeste 0 1001.5 -- 64
2020-07-29 03:00:00 26.2 11 Sudoeste 17 Oeste 0 1001.5 -- 54
2020-07-29 02:00:00 27.3 11 Oeste 17 Oeste 0 1001.5 -- 47
2020-07-29 01:00:00 28.1 12 Oeste 18 Oeste 0 1001.2 -- 44
2020-07-29 00:00:00 31.1 15 Sudoeste 24 Oeste 0 1001 -- 33
2020-07-28 23:00:00 31 12 Sudoeste 15 Oeste 0 1000.7 -- 34
2020-07-28 22:00:00 32.9 11 Oeste 21 Oeste 0 999.9 -- 26
2020-07-28 21:00:00 36.5 14 Oeste 24 Oeste 0 999.6 -- 14
2020-07-28 20:00:00 38.9 17 Oeste 28 Oeste 0 999.5 -- 12
2020-07-28 19:00:00 40.4 18 Oeste 28 Oeste 0 999.6 -- 11
2020-07-28 18:00:00 40.6 15 Sudoeste 28 Oeste 0 1000.1 -- 11
2020-07-28 17:00:00 40.2 13 Sudoeste 26 Oeste 0 1000.6 -- 12
2020-07-28 16:00:00 39.4 15 Sudoeste 26 Oeste 0 1001 -- 16
2020-07-28 15:00:00 38.3 9 Oeste 21 Sudoeste 0 1001.7 -- 18
2020-07-28 14:00:00 36.3 7 Oeste 21 Oeste 0 1002.4 -- 25
2020-07-28 13:00:00 34.2 6 Oeste 17 Oeste 0 1003.2 -- 32
2020-07-28 12:00:00 32 5 Sudoeste 17 Sudoeste 0 1003.7 -- 34
2020-07-28 11:00:00 30.2 4 Sudeste 11 Sudeste 0 1003.9 -- 39
2020-07-28 10:00:00 27.8 3 Oeste 8 Oeste 0 1004.1 -- 50
2020-07-28 09:00:00 25 5 Oeste 8 Oeste 0 1004.3 -- 54
2020-07-28 08:00:00 22.9 2 Este 5 Nordeste 0 1004 -- 62
2020-07-28 07:00:00 22.4 3 Este 5 Norte 0 1003.9 -- 62
2020-07-28 06:00:00 22.2 3 Sudoeste 11 Sudoeste 0 1003.5 -- 63
2020-07-28 05:00:00 23.6 9 Sur 11 Sur 0 1003.6 -- 57
2020-07-28 04:00:00 24.4 9 Oeste 17 Oeste 0 1003.7 -- 55
2020-07-28 03:00:00 24.6 9 Oeste 15 Oeste 0 1004 -- 54
2020-07-28 02:00:00 26.7 10 Oeste 17 Oeste 0 1004.5 -- 45
2020-07-28 01:00:00 27.4 9 Oeste 17 Sudoeste 0 1004.4 -- 42
2020-07-28 00:00:00 29.2 12 Sudoeste 24 Sudoeste 0 1004 -- 34
2020-07-27 23:00:00 31.7 20 Sudoeste 30 Sudoeste 0 1003.4 -- 27
2020-07-27 22:00:00 32.9 14 Sudoeste 30 Sudoeste 0 1002.3 -- 26
2020-07-27 21:00:00 35.3 19 Oeste 33 Oeste 0 1001.7 -- 23
2020-07-27 20:00:00 36.6 25 Oeste 37 Oeste 0 1001.2 -- 27
2020-07-27 19:00:00 37.6 25 Oeste 37 Oeste 0 1001.2 -- 26
2020-07-27 18:00:00 38.6 20 Oeste 32 Oeste 0 1001.4 -- 26
2020-07-27 17:00:00 38.4 16 Oeste 33 Oeste 0 1001.8 -- 24
2020-07-27 16:00:00 38 19 Oeste 35 Oeste 0 1002.3 -- 24
2020-07-27 15:00:00 37.5 19 Oeste 28 Oeste 0 1002.7 -- 23
2020-07-27 14:00:00 36.8 12 Oeste 22 Oeste 0 1003.2 -- 23
2020-07-27 13:00:00 35.1 10 Oeste 18 Oeste 0 1003.9 -- 25
2020-07-27 12:00:00 33.6 6 Sudoeste 15 Oeste 0 1004.2 -- 29
2020-07-27 09:00:00 26.3 4 Sur 8 Oeste 0 1003.9 1.3 51
2020-07-27 08:00:00 23.3 3 Oeste 5 Oeste 0 1003.5 1 64
2020-07-27 07:00:00 23.9 0 Calma 8 Nordeste 0 1003.2 0.7 57
2020-07-27 06:00:00 24.2 4 Norte 5 Norte 0 1002.6 0.1 62
2020-07-27 05:00:00 26.2 2 Sudoeste 18 Sudoeste 0 1002.5 -0.2 47
2020-07-27 04:00:00 27.2 15 Sudoeste 24 Sudoeste 0 1002.5 0.3 44
2020-07-27 03:00:00 28.1 13 Sudoeste 33 Oeste 0 1002.5 1.6 42
2020-07-27 02:00:00 29.7 21 Oeste 33 Oeste 0 1002.7 3.1 39
2020-07-27 01:00:00 31.7 17 Oeste 28 Sudoeste 0 1002.2 3.6 30
2020-07-27 00:00:00 33.2 16 Oeste 32 Sudoeste 0 1000.9 2.5 19
2020-07-26 23:00:00 34.4 14 Oeste 22 Sur 0 999.6 1.5 17
2020-07-26 22:00:00 37.8 16 Sur 26 Sur 0 998.6 0.3 12
2020-07-26 21:00:00 40.6 19 Sur 28 Sur 0 998.4 -0.2 11
2020-07-26 20:00:00 42.5 10 Noroeste 18 Oeste 0 998.1 -0.9 13
2020-07-26 19:00:00 43.4 11 Oeste 32 Oeste 0 998.3 -1.5 12
2020-07-26 18:00:00 43.4 12 Sudoeste 21 Sudoeste 0 998.6 -2.1 12
2020-07-26 17:00:00 42.3 9 Noroeste 17 Norte 0 999 -2.3 15
2020-07-26 16:00:00 41.7 8 Noroeste 17 Nordeste 0 999.8 -2.2 15
2020-07-26 15:00:00 40.2 6 Noroeste 13 Oeste 0 1000.7 -1.7 17
2020-07-26 14:00:00 38.4 7 Norte 13 Norte 0 1001.3 -1.2 19
2020-07-26 13:00:00 37.1 5 Sur 11 Sur 0 1002 -0.6 23
2020-07-26 12:00:00 34.6 5 Sudeste 13 Nordeste 0 1002.4 0.1 27
2020-07-26 11:00:00 32.3 7 Este 13 Este 0 1002.5 0.6 32
2020-07-26 10:00:00 29.7 9 Este 13 Este 0 1002.6 -- 38
2020-07-26 09:00:00 26.6 5 Este 8 Este 0 1002.3 -- 50
2020-07-26 08:00:00 23 3 Sur 5 Sur 0 1001.9 -- 61
2020-07-26 07:00:00 22.8 0 Calma 5 Sudoeste 0 1001.7 -- 66
2020-07-26 06:00:00 23.6 -- -- -- -- 0 1001.2 -- 58
2020-07-26 05:00:00 25.2 4 Sudoeste 11 Oeste 0 1001 -- 51
2020-07-26 04:00:00 25.3 9 Oeste 11 Noroeste 0 1001.1 -- 52
2020-07-26 03:00:00 26.5 7 Sudoeste 11 Oeste 0 1000.9 -- 47
2020-07-26 02:00:00 27.7 8 Oeste 13 Oeste 0 1000.8 -- 43
2020-07-26 01:00:00 29.2 8 Oeste 18 Sudoeste 0 1000.5 -- 37
2020-07-26 00:00:00 32.3 16 Sudoeste 26 Sudoeste 0 1000.4 -- 28
2020-07-25 23:00:00 31 9 Oeste 15 Oeste 0 999.6 -- 34
2020-07-25 22:00:00 35.1 12 Oeste 24 Oeste 0 999 -- 23
2020-07-25 21:00:00 38.1 10 Oeste 22 Oeste 0 998.5 -- 19
2020-07-25 20:00:00 40.3 19 Oeste 24 Oeste 0 998.2 -- 14
2020-07-25 19:00:00 41.7 11 Sudoeste 21 Sudoeste 0 998.2 -- 13
2020-07-25 18:00:00 42 12 Oeste 33 Sudoeste 0 998.6 -- 12
2020-07-25 17:00:00 41.9 8 Oeste 24 Oeste 0 999.1 -- 12
2020-07-25 16:00:00 41.7 11 Sudoeste 22 Sudoeste 0 999.7 -- 12
2020-07-25 15:00:00 40.6 5 Norte 22 Oeste 0 1000.3 -- 13
2020-07-25 14:00:00 39.1 6 Oeste 15 Oeste 0 1001 -- 15
2020-07-25 13:00:00 36.6 6 Noroeste 13 Norte 0 1001.6 -- 20
2020-07-25 12:00:00 35.1 4 Este 13 Este 0 1002.1 -- 22
2020-07-25 11:00:00 32.1 8 Este 15 Nordeste 0 1002.2 -- 26
2020-07-25 10:00:00 29.6 8 Este 13 Este 0 1002.2 -- 33
2020-07-25 09:00:00 26 2 Oeste 9 Norte 0 1002.1 -- 41
2020-07-25 08:00:00 21.9 3 Sudoeste 5 Sudoeste 0 1001.6 -- 58
2020-07-25 07:00:00 22.2 5 Sur 8 Sur 0 1001.4 -- 55
2020-07-25 06:00:00 23.1 2 Sudoeste 5 Sur 0 1001.4 -- 59
2020-07-25 05:00:00 24.3 3 Sudoeste 8 Oeste 0 1001.4 -- 50
2020-07-25 04:00:00 24.5 6 Oeste 9 Noroeste 0 1001.4 -- 51
2020-07-25 03:00:00 26.7 6 Sudoeste 11 Oeste 0 1001.6 -- 42
2020-07-25 02:00:00 28 9 Sudoeste 13 Oeste 0 1001.3 -- 38
2020-07-25 01:00:00 29.1 9 Oeste 21 Sudoeste 0 1001.3 -- 35
2020-07-25 00:00:00 32.1 13 Sudoeste 21 Sudoeste 0 1000.8 -- 26
2020-07-24 23:00:00 33 13 Sudoeste 17 Sudoeste 0 1000.4 -- 28
2020-07-24 22:00:00 34.2 13 Oeste 26 Oeste 0 999.4 -- 26
2020-07-24 21:00:00 37.2 15 Oeste 28 Oeste 0 999.1 -- 20
2020-07-24 20:00:00 39.7 13 Oeste 21 Sudoeste 0 998.9 -- 15
2020-07-24 19:00:00 40.9 9 Oeste 22 Oeste 0 998.9 -- 13
2020-07-24 18:00:00 40.9 11 Sudoeste 30 Oeste 0 999.3 -- 13
2020-07-24 17:00:00 41 14 Oeste 32 Oeste 0 999.8 -- 14
2020-07-24 16:00:00 40.3 14 Oeste 32 Oeste 0 1000.4 -- 16
2020-07-24 15:00:00 39.7 8 Noroeste 22 Sur 0 1001 -- 17
2020-07-24 14:00:00 38.8 6 Oeste 13 Oeste 0 1001.6 -- 21
2020-07-24 13:00:00 36.8 5 Sudoeste 17 Sudoeste 0 1002.3 -- 24
2020-07-24 12:00:00 34.5 3 Oeste 11 Nordeste 0 1002.6 -- 27
2020-07-24 11:00:00 31.6 4 Este 13 Sur 0 1002.9 -- 34
2020-07-24 10:00:00 29.4 4 Este 9 Sur 0 1003.1 -- 39
2020-07-24 09:00:00 26.2 3 Sur -- -- 0 1003 -- 50
2020-07-24 08:00:00 23.3 3 Sudoeste 5 Sudoeste 0 1002.7 -- 62
2020-07-24 07:00:00 23.2 2 Sudoeste 5 Sudoeste 0 1002.5 -- 61
2020-07-24 06:00:00 23.9 2 Sudoeste 8 Oeste 0 1002.2 -- 60
2020-07-24 05:00:00 24.8 5 Sudoeste -- -- 0 1002.2 -- 57
2020-07-24 04:00:00 26 9 Oeste 13 Oeste 0 1002.3 -- 51
2020-07-24 03:00:00 27.1 9 Oeste 22 Oeste 0 1002.6 -- 46
2020-07-24 02:00:00 29.3 14 Oeste 26 Sudoeste 0 1002.6 -- 38
2020-07-24 01:00:00 31 13 Sudoeste 33 Sudoeste 0 1002.6 -- 33
2020-07-24 00:00:00 32 15 Sudoeste 30 Oeste 0 1002.5 -- 33
2020-07-23 23:00:00 33.3 18 Oeste 32 Sudoeste 0 1001.9 -- 31
2020-07-23 22:00:00 33.8 18 Oeste 30 Oeste 0 1001.1 -- 29
2020-07-23 21:00:00 36.7 12 Oeste 24 Oeste 0 1000.6 -- 22
2020-07-23 20:00:00 38.9 14 Oeste 22 Oeste 0 1000.5 -- 19
2020-07-23 19:00:00 39.8 13 Oeste 24 Oeste 0 1000.7 -- 17
2020-07-23 18:00:00 40.1 9 Sur 18 Sudoeste 0 1001.2 -- 17
2020-07-23 17:00:00 39.3 14 Sudoeste 28 Oeste 0 1002 -- 18
2020-07-23 16:00:00 39.1 13 Oeste 22 Oeste 0 1002.7 -- 19
2020-07-23 15:00:00 38.1 13 Oeste 24 Sudoeste 0 1003.4 -- 21
2020-07-23 14:00:00 36 5 Norte 15 Sudoeste 0 1004.2 -- 27
2020-07-23 13:00:00 34.7 4 Sur 13 Sudoeste 0 1004.8 -- 33
2020-07-23 12:00:00 32 3 Sudeste 11 Oeste 0 1005.2 -- 40
2020-07-23 11:00:00 28.7 6 Noroeste 13 Sudoeste 0 1005.7 -- 51
2020-07-23 10:00:00 26.9 5 Oeste 11 Oeste 0 1005.9 -- 59
2020-07-23 09:00:00 25.2 4 Oeste 8 Oeste 0 1005.9 -- 66
2020-07-23 08:00:00 22.9 3 Sudoeste 8 Sudoeste 0 1005.7 -- 75
2020-07-23 07:00:00 22.7 5 Sudoeste 13 Oeste 0 1005.4 -- 74
2020-07-23 06:00:00 23.2 10 Oeste 13 Oeste 0 1005.3 -- 74
2020-07-23 05:00:00 24 9 Oeste 11 Oeste 0 1005.1 -- 70
2020-07-23 04:00:00 25.1 10 Oeste 17 Oeste 0 1005.1 -- 66
2020-07-23 03:00:00 26.3 11 Oeste 22 Oeste 0 1005.3 -- 62
2020-07-23 02:00:00 27.5 13 Oeste 21 Oeste 0 1005.2 -- 57
2020-07-23 01:00:00 28.6 13 Oeste 24 Sudoeste 0 1005.1 -- 53
2020-07-23 00:00:00 29.6 13 Sudoeste 21 Sudoeste 0 1004.7 -- 49
2020-07-22 23:00:00 30.6 12 Oeste 21 Noroeste 0 1004.2 -- 42
2020-07-22 22:00:00 32.4 13 Oeste 24 Oeste 0 1003.3 -- 36
2020-07-22 21:00:00 33.9 14 Oeste 22 Oeste 0 1003 -- 32
2020-07-22 20:00:00 35.6 11 Oeste 24 Sudoeste 0 1003 -- 28
2020-07-22 19:00:00 36.3 11 Sudoeste 22 Sudoeste 0 1003.1 -- 26
2020-07-22 18:00:00 36.1 8 Sudoeste 22 Sudoeste 0 1003.5 -- 24
2020-07-22 17:00:00 36 9 Sur 24 Sudoeste 0 1003.9 -- 23
2020-07-22 16:00:00 34.9 10 Oeste 24 Sudoeste 0 1004.6 -- 24
2020-07-22 15:00:00 33.3 12 Oeste 28 Oeste 0 1005.3 -- 32
2020-07-22 14:00:00 32.1 12 Oeste 30 Sudoeste 0 1005.8 -- 37
2020-07-22 13:00:00 31.1 14 Oeste 30 Sudoeste 0 1006.2 -- 42
2020-07-22 12:00:00 29.1 13 Sudoeste 26 Sudoeste 0 1006.6 -- 53
2020-07-22 11:00:00 27.3 14 Oeste 22 Oeste 0 1006.8 -- 62
2020-07-22 10:00:00 25.8 13 Oeste 21 Oeste 0 1006.7 -- 67
2020-07-22 09:00:00 24 7 Oeste 13 Sudoeste 0 1006.4 -- 74
2020-07-22 08:00:00 22.2 6 Oeste 9 Oeste 0 1006 -- 82
2020-07-22 07:00:00 22.1 5 Sudoeste 11 Sudoeste 0 1005.7 -- 80
2020-07-22 06:00:00 22.8 8 Sudoeste 13 Sudoeste 0 1005.5 -- 78
2020-07-22 05:00:00 23.5 8 Sudoeste 21 Sudoeste 0 1005.6 -- 75
2020-07-22 04:00:00 24.3 16 Sudoeste 30 Oeste 0 1005.8 -- 73
2020-07-22 03:00:00 25.3 17 Sudoeste 26 Oeste 0 1005.6 -- 69
2020-07-22 02:00:00 26 17 Oeste 32 Oeste 0 1005.2 -- 66
2020-07-22 01:00:00 27 19 Oeste 30 Sudoeste 0 1004.7 -- 61
2020-07-22 00:00:00 27.9 19 Oeste 30 Oeste 0 1004.3 -- 57
2020-07-21 23:00:00 29.1 18 Sudoeste 33 Sudoeste 0 1003.7 -- 52
2020-07-21 22:00:00 30.8 18 Sudoeste 39 Oeste 0 1002.5 -- 45
2020-07-21 21:00:00 33.7 25 Sudoeste 50 Sur 0 1001.1 -- 35
2020-07-21 20:00:00 36.6 18 Sudoeste 35 Oeste 0 1000.6 -- 21
2020-07-21 19:00:00 37 18 Sudoeste 35 Sudoeste 0 1000.5 -- 24
2020-07-21 18:00:00 37.4 20 Sudoeste 32 Sudoeste 0 1000.8 -- 24
2020-07-21 17:00:00 37.5 19 Sudoeste 32 Sudoeste 0 1001.3 -- 22
2020-07-21 16:00:00 37.2 18 Oeste 30 Oeste 0 1001.6 -- 23
2020-07-21 15:00:00 36.3 15 Oeste 30 Oeste 0 1002 -- 26
2020-07-21 14:00:00 34.5 8 Oeste -- -- -- 1002.6 -- 28
2020-07-21 13:00:00 -- -- -- -- -- -- -- -- --
2020-07-21 12:00:00 -- -- -- 21 Oeste 1.2 -- -- --
2020-07-21 11:00:00 25 4 Oeste 22 Oeste 0.1 1002.3 -- 66
2020-07-21 10:00:00 -- -- -- -- -- -- -- -- --
2020-07-21 09:00:00 26.5 4 Sudeste 21 Oeste 0 1002.1 -- 51
2020-07-21 08:00:00 25.7 7 Sudoeste 9 Sudoeste 0 1002.5 -- 55
2020-07-21 07:00:00 26.4 8 Oeste 21 Nordeste 0 1002 -- 50
2020-07-21 06:00:00 27.8 9 Oeste 32 Sudoeste 0 1001.5 -- 41
2020-07-21 05:00:00 27.5 11 Sur 18 Sudoeste 0 1001.6 -- 43
2020-07-21 04:00:00 26.5 6 Oeste 17 Oeste 0 1001.3 -- 49
2020-07-21 03:00:00 28.1 8 Noroeste 18 Oeste 0 1002.1 -- 43
2020-07-21 02:00:00 28.5 5 Oeste 21 Sudoeste 0 1001.8 -- 41
2020-07-21 01:00:00 29.9 8 Oeste 15 Oeste 0 1001.5 -- 36
2020-07-21 00:00:00 32.7 12 Nordeste 30 Oeste 0 1000.4 -- 28
2020-07-20 23:00:00 34.2 9 Sudoeste 28 Sudoeste 0 1000.6 -- 23
2020-07-20 22:00:00 35.5 11 Oeste 28 Sur 0 999.5 -- 20
2020-07-20 21:00:00 39 16 Sur 28 Sudoeste 0 998.7 -- 15
2020-07-20 20:00:00 41.6 6 Oeste 15 Oeste 0 998.1 -- 11
2020-07-20 19:00:00 41.9 8 Nordeste 15 Nordeste 0 998.3 -- 10
2020-07-20 18:00:00 41.9 8 Nordeste 18 Nordeste 0 999.1 -- 12
2020-07-20 17:00:00 41.8 7 Sudeste 21 Sudoeste 0 999.5 -- 12
2020-07-20 16:00:00 41.4 11 Sur 24 Sur 0 1000.4 -- 15
2020-07-20 15:00:00 39 5 Norte 15 Este 0 1001.1 -- 20
2020-07-20 14:00:00 37.7 9 Nordeste 17 Este 0 1001.7 -- 22
2020-07-20 13:00:00 36.3 6 Noroeste -- -- -- 1002.5 -- 26
2020-07-20 12:00:00 33.4 7 Nordeste 15 Este 0 1002.9 -- 31
2020-07-20 11:00:00 31.1 3 Nordeste 11 Este 0 1003.2 -- 35
2020-07-20 10:00:00 28.8 8 Este 17 Este 0 1003.1 -- 36
2020-07-20 09:00:00 26.2 5 Este 9 Este 0 1002.8 -- 49
2020-07-20 08:00:00 22.1 2 Sudeste 5 Sur 0 1002.6 -- 66
2020-07-20 07:00:00 22.2 3 Sudeste 5 Oeste 0 1002.3 -- 64
2020-07-20 06:00:00 22.6 3 Sudoeste 9 Sur 0 1002.2 -- 64
2020-07-20 05:00:00 22.8 5 Oeste 9 Sur 0 1002.4 -- 66
2020-07-20 04:00:00 24.5 0 Calma 9 Sudoeste 0 1002.1 -- 60
2020-07-20 03:00:00 26 8 Sudoeste 13 Oeste 0 1002.5 -- 48
2020-07-20 02:00:00 26.8 8 Oeste 11 Oeste 0 1002.5 -- 47
2020-07-20 01:00:00 29.4 11 Sudoeste 17 Sur 0 1002.3 -- 35
2020-07-20 00:00:00 30.4 8 Oeste 18 Sudoeste 0 1002.4 -- 35
2020-07-19 23:00:00 30.7 14 Oeste 18 Oeste 0 1001.7 -- 34
2020-07-19 22:00:00 32.7 11 Oeste 22 Oeste 0 1000.8 -- 25
2020-07-19 21:00:00 35.3 15 Oeste 26 Oeste 0 1000.4 -- 17
2020-07-19 20:00:00 38 17 Oeste 30 Sudoeste 0 1000.3 -- 14
2020-07-19 19:00:00 39 21 Sudoeste 32 Oeste 0 1000.5 -- 12
2020-07-19 18:00:00 39.3 18 Oeste 30 Sudoeste 0 1000.9 -- 14
2020-07-19 17:00:00 39 19 Oeste 30 Oeste 0 1001.4 -- 13
2020-07-19 16:00:00 37.7 16 Oeste 30 Oeste 0 1002 -- 25
2020-07-19 15:00:00 36.2 16 Oeste 30 Sudoeste 0 1002.7 -- 31
2020-07-19 14:00:00 34.2 17 Oeste 26 Oeste 0 1003.4 -- 33
2020-07-19 13:00:00 32.3 13 Oeste 26 Oeste 0 1003.9 -- 39
2020-07-19 12:00:00 30.6 16 Oeste 26 Oeste 0 1004.4 0.2 43
2020-07-19 11:00:00 28.9 9 Sudoeste 18 Oeste 0 1004.4 0.4 49
2020-07-19 10:00:00 26.8 6 Oeste 13 Sudoeste 0 1004.5 0.8 58
2020-07-19 09:00:00 25.1 7 Sudoeste 11 Sudoeste 0 1004.2 0.5 62
2020-07-19 08:00:00 23.3 6 Sudoeste 11 Oeste 0 1004 -- 68
2020-07-19 07:00:00 23 8 Sudoeste 15 Oeste 0 1003.7 -- 67
2020-07-19 06:00:00 24 9 Oeste 17 Oeste 0 1003.7 -- 63
2020-07-19 05:00:00 24.7 12 Oeste 17 Oeste 0 1003.5 -- 59
2020-07-19 04:00:00 25.7 9 Oeste 15 Oeste 0 1003.6 -- 57
2020-07-19 03:00:00 27 8 Oeste 22 Oeste 0 1003.8 -- 54
2020-07-19 02:00:00 28.6 12 Sudoeste 30 Oeste 0 1003.4 -- 47
2020-07-19 01:00:00 30.1 18 Sudoeste 32 Oeste 0 1003.2 -- 41
2020-07-19 00:00:00 31.3 20 Oeste 32 Oeste 0 1002.8 -- 38
2020-07-18 23:00:00 31.7 14 Oeste 24 Oeste 0 1002.2 -- 37
2020-07-18 22:00:00 32.8 16 Sudoeste 35 Oeste 0 1001.4 -- 33
2020-07-18 21:00:00 34.8 23 Oeste 42 Sudoeste 0 1000.6 -- 30
2020-07-18 20:00:00 36.5 28 Oeste 45 Oeste 0 1000.1 -- 28
2020-07-18 19:00:00 37.6 25 Oeste 39 Oeste 0 1000 -- 26
2020-07-18 18:00:00 38.2 21 Oeste 39 Oeste 0 1000.2 -- 23
2020-07-18 17:00:00 38 21 Oeste 37 Oeste 0 1000.7 -- 24
2020-07-18 16:00:00 37.6 22 Oeste 32 Oeste 0 1001.3 -- 24
2020-07-18 15:00:00 36.8 13 Oeste 28 Oeste 0 1001.7 -- 24
2020-07-18 14:00:00 35.2 13 Oeste 28 Oeste 0 1002.5 -- 27
2020-07-18 13:00:00 32.9 10 Oeste 18 Oeste 0 1002.9 -- 32
2020-07-18 12:00:00 31 8 Oeste 22 Oeste 0 1003.2 -- 37
2020-07-18 11:00:00 29.5 12 Oeste 22 Oeste 0 1003.4 -- 42
2020-07-18 10:00:00 27.5 12 Oeste 18 Oeste 0 1003.3 -- 51
2020-07-18 09:00:00 26.3 7 Oeste 11 Oeste 0 1003.1 -- 52
2020-07-18 08:00:00 24.1 4 Oeste -- -- 0 1002.7 -- 61
2020-07-18 07:00:00 23.5 8 Oeste 11 Oeste 0 1002.2 -- 63
2020-07-18 06:00:00 24.8 5 Oeste 11 Sur 0 1002 -- 60
2020-07-18 05:00:00 25.6 5 Oeste 17 Oeste 0 1001.9 -- 56
2020-07-18 04:00:00 27.1 12 Sudoeste 18 Sudoeste 0 1001.8 -- 48
2020-07-18 03:00:00 28 11 Sudoeste 17 Sudoeste 0 1001.7 -- 43
2020-07-18 02:00:00 28.6 9 Oeste 17 Oeste 0 1001.6 -- 42
2020-07-18 01:00:00 30.1 10 Oeste 18 Oeste 0 1001.4 -- 37
2020-07-18 00:00:00 31.5 12 Oeste 21 Sudoeste 0 1001.1 -- 34
2020-07-17 23:00:00 33.6 11 Sur 24 Sudoeste 0 1000.5 -- 26
2020-07-17 22:00:00 34.8 9 Sur 26 Sur 0 999.6 -- 22
2020-07-17 21:00:00 38.5 17 Sur 24 Sur 0 998.8 -- 17
2020-07-17 20:00:00 40 15 Sudoeste 32 Sur 0 998.8 -- 15
2020-07-17 19:00:00 40.7 14 Sudoeste 33 Sudoeste 0 999 -- 15
2020-07-17 18:00:00 40.7 15 Sudoeste 28 Sudoeste 0 999.5 -- 15
2020-07-17 17:00:00 40 12 Oeste 26 Sudoeste 0 1000.3 -- 16
2020-07-17 16:00:00 39.5 8 Sur 22 Sur 0 1001.1 -- 15
2020-07-17 15:00:00 39 10 Sur 22 Sudoeste 0 1001.6 -- 16
2020-07-17 14:00:00 37.5 7 Sudoeste 18 Sudoeste 0 1002.3 -- 19
2020-07-17 13:00:00 35.5 7 Oeste 15 Noroeste 0 1002.9 -- 22
2020-07-17 12:00:00 32.9 9 Nordeste 15 Nordeste 0 1003.2 -- 26
2020-07-17 11:00:00 31.3 6 Sudeste 15 Sudeste 0 1003.6 -- 29
2020-07-17 10:00:00 29.4 0 Calma 8 Nordeste 0 1004.1 -- 31
2020-07-17 09:00:00 26.6 3 Sudeste 8 Sur 0 1004 -- 36
2020-07-17 08:00:00 21.7 6 Sur 8 Sur 0 1003.8 -- 54
2020-07-17 07:00:00 22.2 3 Sudoeste 11 Sur 0 1003.5 -- 52
2020-07-17 06:00:00 22.6 5 Sur 13 Sudoeste 0 1003.4 -- 48
2020-07-17 05:00:00 24.1 8 Sur 11 Oeste 0 1003.3 -- 40
2020-07-17 04:00:00 25.4 10 Sudoeste 18 Sudoeste 0 1003.2 -- 35
2020-07-17 03:00:00 26.2 12 Oeste 17 Oeste 0 1003.4 -- 35
2020-07-17 02:00:00 26.4 4 Oeste 18 Sudoeste 0 1003.9 -- 39
2020-07-17 01:00:00 29 14 Sudoeste 21 Oeste 0 1003.5 -- 24
2020-07-17 00:00:00 29.6 10 Sudoeste 18 Oeste 0 1003 -- 26
2020-07-16 23:00:00 32 8 Sudoeste 24 Sudoeste 0 1002.2 -- 22
2020-07-16 22:00:00 33.6 8 Oeste 30 Sudoeste 0 1001.3 -- 20
2020-07-16 21:00:00 37.3 20 Sudoeste 30 Sudoeste 0 1000.6 -- 17
2020-07-16 20:00:00 39.9 12 Oeste 18 Oeste 0 1000.3 -- 18
2020-07-16 19:00:00 40.6 5 Oeste 17 Sur 0 1000.5 -- 16
2020-07-16 18:00:00 40.6 8 Sur 21 Norte 0 1000.9 -- 15
2020-07-16 17:00:00 39.7 7 Oeste 17 Nordeste 0 1001.5 -- 19
2020-07-16 16:00:00 39.4 6 Norte 18 Sur 0 1002.2 -- 19
2020-07-16 15:00:00 38 8 Sudeste 21 Sur 0 1002.8 -- 22
2020-07-16 14:00:00 36.5 7 Sudeste 15 Sudeste 0 1003.8 -- 23
2020-07-16 13:00:00 34 7 Oeste 15 Noroeste 0 1004.5 -- 31
2020-07-16 12:00:00 31.3 6 Noroeste 15 Oeste 0 1005 -- 36
2020-07-16 11:00:00 30 7 Oeste 13 Oeste 0 1005 -- 39
2020-07-16 10:00:00 29.1 3 Sudeste 13 Sur 0 1004.9 -- 41
2020-07-16 09:00:00 26.7 2 Sudeste 8 Sudoeste 0 1004.5 -- 47
2020-07-16 08:00:00 23.3 3 Oeste 8 Nordeste 0 1004.2 -- 62
2020-07-16 07:00:00 23.1 8 Norte 9 Norte 0 1004.1 -- 58
2020-07-16 06:00:00 23.1 3 Nordeste 5 Sur 0 1004 -- 61
2020-07-16 05:00:00 23.9 6 Sur 11 Sur 0 1003.8 -- 57
2020-07-16 04:00:00 24.8 9 Sudoeste 15 Sudoeste 0 1003.7 -- 52
2020-07-16 03:00:00 24.6 10 Oeste 13 Sudoeste 0 1003.8 -- 54
2020-07-16 02:00:00 26.1 9 Sudoeste 15 Sudoeste 0 1003.7 -- 45
2020-07-16 01:00:00 28.1 11 Sudoeste 17 Sur 0 1003.5 -- 37
2020-07-16 00:00:00 29.3 10 Oeste 21 Oeste 0 1002.7 -- 33